sensor_id;sensor_type;location;lat;lon;timestamp;temperature;humidity
17252;DHT22;8742;51.716;8.790;2023-03-01T00:02:11;-2.60;99.90
17252;DHT22;8742;51.716;8.790;2023-03-01T00:04:39;-2.60;99.90
17252;DHT22;8742;51.716;8.790;2023-03-01T00:07:06;-2.60;99.90
17252;DHT22;8742;51.716;8.790;2023-03-01T00:09:32;-2.60;99.90
17252;DHT22;8742;51.716;8.790;2023-03-01T00:11:59;-2.60;99.90
17252;DHT22;8742;51.716;8.790;2023-03-01T00:14:26;-2.60;99.90
17252;DHT22;8742;51.716;8.790;2023-03-01T00:16:53;-2.70;99.90
17252;DHT22;8742;51.716;8.790;2023-03-01T00:19:20;-2.60;99.90
17252;DHT22;8742;51.716;8.790;2023-03-01T00:21:49;-2.60;99.90
17252;DHT22;8742;51.716;8.790;2023-03-01T00:24:16;-2.60;99.90
17252;DHT22;8742;51.716;8.790;2023-03-01T00:26:43;-2.60;99.90
17252;DHT22;8742;51.716;8.790;2023-03-01T00:29:10;-2.50;99.90
17252;DHT22;8742;51.716;8.790;2023-03-01T00:31:36;-2.50;99.90
17252;DHT22;8742;51.716;8.790;2023-03-01T00:34:05;-2.50;99.90
17252;DHT22;8742;51.716;8.790;2023-03-01T00:36:34;-2.50;99.90
17252;DHT22;8742;51.716;8.790;2023-03-01T00:39:04;-2.50;99.90
17252;DHT22;8742;51.716;8.790;2023-03-01T00:41:31;-2.50;99.90
17252;DHT22;8742;51.716;8.790;2023-03-01T00:44:00;-2.50;99.90
17252;DHT22;8742;51.716;8.790;2023-03-01T00:46:27;-2.60;99.90
17252;DHT22;8742;51.716;8.790;2023-03-01T00:48:55;-2.60;99.90
17252;DHT22;8742;51.716;8.790;2023-03-01T00:51:24;-2.60;99.90
17252;DHT22;8742;51.716;8.790;2023-03-01T00:53:52;-2.60;99.90
17252;DHT22;8742;51.716;8.790;2023-03-01T00:56:21;-2.70;99.90
17252;DHT22;8742;51.716;8.790;2023-03-01T00:58:47;-2.70;99.90
17252;DHT22;8742;51.716;8.790;2023-03-01T01:01:16;-2.70;99.90
17252;DHT22;8742;51.716;8.790;2023-03-01T01:03:45;-2.80;99.90
17252;DHT22;8742;51.716;8.790;2023-03-01T01:06:17;-2.80;99.90
17252;DHT22;8742;51.716;8.790;2023-03-01T01:08:44;-2.80;99.90
17252;DHT22;8742;51.716;8.790;2023-03-01T01:11:11;-2.80;99.90
17252;DHT22;8742;51.716;8.790;2023-03-01T01:13:40;-2.80;99.90
17252;DHT22;8742;51.716;8.790;2023-03-01T01:16:07;-2.90;99.90
17252;DHT22;8742;51.716;8.790;2023-03-01T01:18:34;-2.90;99.90
17252;DHT22;8742;51.716;8.790;2023-03-01T01:21:06;-3.00;99.90
17252;DHT22;8742;51.716;8.790;2023-03-01T01:23:34;-2.90;99.90
17252;DHT22;8742;51.716;8.790;2023-03-01T01:26:05;-3.00;99.90
17252;DHT22;8742;51.716;8.790;2023-03-01T01:28:32;-3.00;99.90
17252;DHT22;8742;51.716;8.790;2023-03-01T01:31:01;-3.00;99.90
17252;DHT22;8742;51.716;8.790;2023-03-01T01:33:27;-3.00;99.90
17252;DHT22;8742;51.716;8.790;2023-03-01T01:35:54;-3.00;99.90
17252;DHT22;8742;51.716;8.790;2023-03-01T01:38:21;-3.00;99.90
17252;DHT22;8742;51.716;8.790;2023-03-01T01:40:49;-3.00;99.90
17252;DHT22;8742;51.716;8.790;2023-03-01T01:43:21;-3.00;99.90
17252;DHT22;8742;51.716;8.790;2023-03-01T01:45:49;-3.00;99.90
17252;DHT22;8742;51.716;8.790;2023-03-01T01:48:20;-3.00;99.90
17252;DHT22;8742;51.716;8.790;2023-03-01T01:50:54;-3.00;99.90
17252;DHT22;8742;51.716;8.790;2023-03-01T01:53:22;-3.00;99.90
17252;DHT22;8742;51.716;8.790;2023-03-01T01:55:53;-3.00;99.90
17252;DHT22;8742;51.716;8.790;2023-03-01T01:58:24;-2.90;99.90
17252;DHT22;8742;51.716;8.790;2023-03-01T02:00:53;-2.90;99.90
17252;DHT22;8742;51.716;8.790;2023-03-01T02:03:25;-2.90;99.90
17252;DHT22;8742;51.716;8.790;2023-03-01T02:05:57;-2.80;99.90
17252;DHT22;8742;51.716;8.790;2023-03-01T02:08:27;-2.80;99.90
17252;DHT22;8742;51.716;8.790;2023-03-01T02:10:56;-2.80;99.90
17252;DHT22;8742;51.716;8.790;2023-03-01T02:13:25;-2.70;99.90
17252;DHT22;8742;51.716;8.790;2023-03-01T02:15:52;-2.70;99.90
17252;DHT22;8742;51.716;8.790;2023-03-01T02:18:22;-2.70;99.90
17252;DHT22;8742;51.716;8.790;2023-03-01T02:20:58;-2.70;99.90
17252;DHT22;8742;51.716;8.790;2023-03-01T02:23:29;-2.70;99.90
17252;DHT22;8742;51.716;8.790;2023-03-01T02:26:00;-2.70;99.90
17252;DHT22;8742;51.716;8.790;2023-03-01T02:28:33;-2.80;99.90
17252;DHT22;8742;51.716;8.790;2023-03-01T02:31:02;-2.80;99.90
17252;DHT22;8742;51.716;8.790;2023-03-01T02:33:47;-2.80;99.90
17252;DHT22;8742;51.716;8.790;2023-03-01T02:36:22;-2.90;99.90
17252;DHT22;8742;51.716;8.790;2023-03-01T02:38:52;-2.90;99.90
17252;DHT22;8742;51.716;8.790;2023-03-01T02:41:21;-2.80;99.90
17252;DHT22;8742;51.716;8.790;2023-03-01T02:43:49;-2.80;99.90
17252;DHT22;8742;51.716;8.790;2023-03-01T02:46:17;-2.80;99.90
17252;DHT22;8742;51.716;8.790;2023-03-01T02:48:46;-2.80;99.90
17252;DHT22;8742;51.716;8.790;2023-03-01T02:51:28;-2.70;99.90
17252;DHT22;8742;51.716;8.790;2023-03-01T02:54:08;-2.70;99.90
17252;DHT22;8742;51.716;8.790;2023-03-01T02:56:37;-2.70;99.90
17252;DHT22;8742;51.716;8.790;2023-03-01T02:59:05;-2.70;99.90
17252;DHT22;8742;51.716;8.790;2023-03-01T03:01:32;-2.70;99.90
17252;DHT22;8742;51.716;8.790;2023-03-01T03:04:04;-2.70;99.90
17252;DHT22;8742;51.716;8.790;2023-03-01T03:06:31;-2.70;99.90
17252;DHT22;8742;51.716;8.790;2023-03-01T03:08:58;-2.70;99.90
17252;DHT22;8742;51.716;8.790;2023-03-01T03:11:25;-2.70;99.90
17252;DHT22;8742;51.716;8.790;2023-03-01T03:13:52;-2.70;99.90
17252;DHT22;8742;51.716;8.790;2023-03-01T03:16:20;-2.70;99.90
17252;DHT22;8742;51.716;8.790;2023-03-01T03:18:48;-2.70;99.90
17252;DHT22;8742;51.716;8.790;2023-03-01T03:21:16;-2.70;99.90
17252;DHT22;8742;51.716;8.790;2023-03-01T03:23:43;-2.70;99.90
17252;DHT22;8742;51.716;8.790;2023-03-01T03:26:10;-2.70;99.90
17252;DHT22;8742;51.716;8.790;2023-03-01T03:28:39;-2.70;99.90
17252;DHT22;8742;51.716;8.790;2023-03-01T03:31:07;-2.80;99.90
17252;DHT22;8742;51.716;8.790;2023-03-01T03:33:35;-2.80;99.90
17252;DHT22;8742;51.716;8.790;2023-03-01T03:36:03;-2.80;99.90
17252;DHT22;8742;51.716;8.790;2023-03-01T03:38:30;-2.80;99.90
17252;DHT22;8742;51.716;8.790;2023-03-01T03:41:01;-2.80;99.90
17252;DHT22;8742;51.716;8.790;2023-03-01T03:43:29;-2.80;99.90
17252;DHT22;8742;51.716;8.790;2023-03-01T03:45:56;-2.90;99.90
17252;DHT22;8742;51.716;8.790;2023-03-01T03:48:24;-2.90;99.90
17252;DHT22;8742;51.716;8.790;2023-03-01T03:50:54;-3.00;99.90
17252;DHT22;8742;51.716;8.790;2023-03-01T03:53:23;-3.00;99.90
17252;DHT22;8742;51.716;8.790;2023-03-01T03:55:50;-3.10;99.90
17252;DHT22;8742;51.716;8.790;2023-03-01T03:58:19;-3.20;99.90
17252;DHT22;8742;51.716;8.790;2023-03-01T04:00:48;-3.20;99.90
17252;DHT22;8742;51.716;8.790;2023-03-01T04:03:15;-3.30;99.90
17252;DHT22;8742;51.716;8.790;2023-03-01T04:05:44;-3.40;99.90
17252;DHT22;8742;51.716;8.790;2023-03-01T04:08:13;-3.40;99.90
17252;DHT22;8742;51.716;8.790;2023-03-01T04:10:41;-3.50;99.90
17252;DHT22;8742;51.716;8.790;2023-03-01T04:13:11;-3.60;99.90
17252;DHT22;8742;51.716;8.790;2023-03-01T04:15:38;-3.60;99.90
17252;DHT22;8742;51.716;8.790;2023-03-01T04:18:06;-3.70;99.90
17252;DHT22;8742;51.716;8.790;2023-03-01T04:20:34;-3.70;99.90
17252;DHT22;8742;51.716;8.790;2023-03-01T04:23:06;-3.80;99.90
17252;DHT22;8742;51.716;8.790;2023-03-01T04:25:46;-3.80;99.90
17252;DHT22;8742;51.716;8.790;2023-03-01T04:28:15;-3.80;99.90
17252;DHT22;8742;51.716;8.790;2023-03-01T04:30:42;-3.90;99.90
17252;DHT22;8742;51.716;8.790;2023-03-01T04:33:10;-4.00;99.90
17252;DHT22;8742;51.716;8.790;2023-03-01T04:35:37;-4.00;99.90
17252;DHT22;8742;51.716;8.790;2023-03-01T04:38:05;-4.10;99.90
17252;DHT22;8742;51.716;8.790;2023-03-01T04:40:33;-4.10;99.90
17252;DHT22;8742;51.716;8.790;2023-03-01T04:43:01;-4.20;99.90
17252;DHT22;8742;51.716;8.790;2023-03-01T04:45:28;-4.20;99.90
17252;DHT22;8742;51.716;8.790;2023-03-01T04:47:55;-4.20;99.90
17252;DHT22;8742;51.716;8.790;2023-03-01T04:50:24;-4.30;99.90
17252;DHT22;8742;51.716;8.790;2023-03-01T04:52:51;-4.30;99.90
17252;DHT22;8742;51.716;8.790;2023-03-01T04:55:18;-4.30;99.90
17252;DHT22;8742;51.716;8.790;2023-03-01T04:57:45;-4.30;99.90
17252;DHT22;8742;51.716;8.790;2023-03-01T05:00:14;-4.40;99.90
17252;DHT22;8742;51.716;8.790;2023-03-01T05:02:49;-4.40;99.90
17252;DHT22;8742;51.716;8.790;2023-03-01T05:05:19;-4.40;99.90
17252;DHT22;8742;51.716;8.790;2023-03-01T05:07:47;-4.40;99.90
17252;DHT22;8742;51.716;8.790;2023-03-01T05:10:14;-4.50;99.90
17252;DHT22;8742;51.716;8.790;2023-03-01T05:12:40;-4.50;99.90
17252;DHT22;8742;51.716;8.790;2023-03-01T05:15:08;-4.50;99.90
17252;DHT22;8742;51.716;8.790;2023-03-01T05:17:36;-4.50;99.90
17252;DHT22;8742;51.716;8.790;2023-03-01T05:20:04;-4.40;99.90
17252;DHT22;8742;51.716;8.790;2023-03-01T05:22:34;-4.40;99.90
17252;DHT22;8742;51.716;8.790;2023-03-01T05:25:01;-4.30;99.90
17252;DHT22;8742;51.716;8.790;2023-03-01T05:27:28;-4.30;99.90
17252;DHT22;8742;51.716;8.790;2023-03-01T05:29:55;-4.30;99.90
17252;DHT22;8742;51.716;8.790;2023-03-01T05:32:22;-4.20;99.90
17252;DHT22;8742;51.716;8.790;2023-03-01T05:34:50;-4.20;99.90
17252;DHT22;8742;51.716;8.790;2023-03-01T05:37:17;-4.20;99.90
17252;DHT22;8742;51.716;8.790;2023-03-01T05:39:45;-4.20;99.90
17252;DHT22;8742;51.716;8.790;2023-03-01T05:42:11;-4.20;99.90
17252;DHT22;8742;51.716;8.790;2023-03-01T05:44:38;-4.10;99.90
17252;DHT22;8742;51.716;8.790;2023-03-01T05:47:05;-4.10;99.90
17252;DHT22;8742;51.716;8.790;2023-03-01T05:49:32;-4.10;99.90
17252;DHT22;8742;51.716;8.790;2023-03-01T05:52:01;-4.10;99.90
17252;DHT22;8742;51.716;8.790;2023-03-01T05:54:28;-4.10;99.90
17252;DHT22;8742;51.716;8.790;2023-03-01T05:56:55;-4.00;99.90
17252;DHT22;8742;51.716;8.790;2023-03-01T05:59:21;-4.00;99.90
17252;DHT22;8742;51.716;8.790;2023-03-01T06:01:48;-4.00;99.90
17252;DHT22;8742;51.716;8.790;2023-03-01T06:04:15;-4.00;99.90
17252;DHT22;8742;51.716;8.790;2023-03-01T06:06:42;-3.90;99.90
17252;DHT22;8742;51.716;8.790;2023-03-01T06:09:10;-3.90;99.90
17252;DHT22;8742;51.716;8.790;2023-03-01T06:11:37;-3.90;99.90
17252;DHT22;8742;51.716;8.790;2023-03-01T06:14:04;-3.80;99.90
17252;DHT22;8742;51.716;8.790;2023-03-01T06:16:31;-3.80;99.90
17252;DHT22;8742;51.716;8.790;2023-03-01T06:18:58;-3.80;99.90
17252;DHT22;8742;51.716;8.790;2023-03-01T06:21:25;-3.80;99.90
17252;DHT22;8742;51.716;8.790;2023-03-01T06:23:52;-3.80;99.90
17252;DHT22;8742;51.716;8.790;2023-03-01T06:26:20;-3.70;99.90
17252;DHT22;8742;51.716;8.790;2023-03-01T06:28:47;-3.70;99.90
17252;DHT22;8742;51.716;8.790;2023-03-01T06:31:14;-3.70;99.90
17252;DHT22;8742;51.716;8.790;2023-03-01T06:33:41;-3.70;99.90
17252;DHT22;8742;51.716;8.790;2023-03-01T06:36:10;-3.60;99.90
17252;DHT22;8742;51.716;8.790;2023-03-01T06:38:36;-3.60;99.90
17252;DHT22;8742;51.716;8.790;2023-03-01T06:41:04;-3.60;99.90
17252;DHT22;8742;51.716;8.790;2023-03-01T06:43:32;-3.60;99.90
17252;DHT22;8742;51.716;8.790;2023-03-01T06:45:58;-3.60;99.90
17252;DHT22;8742;51.716;8.790;2023-03-01T06:48:26;-3.60;99.90
17252;DHT22;8742;51.716;8.790;2023-03-01T06:50:53;-3.50;99.90
17252;DHT22;8742;51.716;8.790;2023-03-01T06:53:19;-3.50;99.90
17252;DHT22;8742;51.716;8.790;2023-03-01T06:55:46;-3.40;99.90
17252;DHT22;8742;51.716;8.790;2023-03-01T06:58:13;-3.40;99.90
17252;DHT22;8742;51.716;8.790;2023-03-01T07:00:41;-3.30;99.90
17252;DHT22;8742;51.716;8.790;2023-03-01T07:03:08;-3.30;99.90
17252;DHT22;8742;51.716;8.790;2023-03-01T07:05:35;-3.20;99.90
17252;DHT22;8742;51.716;8.790;2023-03-01T07:08:02;-3.20;99.90
17252;DHT22;8742;51.716;8.790;2023-03-01T07:10:29;-3.10;99.90
17252;DHT22;8742;51.716;8.790;2023-03-01T07:12:56;-3.10;99.90
17252;DHT22;8742;51.716;8.790;2023-03-01T07:15:24;-3.00;99.90
17252;DHT22;8742;51.716;8.790;2023-03-01T07:17:52;-2.90;99.90
17252;DHT22;8742;51.716;8.790;2023-03-01T07:20:20;-2.90;99.90
17252;DHT22;8742;51.716;8.790;2023-03-01T07:22:49;-2.80;99.90
17252;DHT22;8742;51.716;8.790;2023-03-01T07:25:16;-2.70;99.90
17252;DHT22;8742;51.716;8.790;2023-03-01T07:27:43;-2.70;99.90
17252;DHT22;8742;51.716;8.790;2023-03-01T07:30:11;-2.60;99.90
17252;DHT22;8742;51.716;8.790;2023-03-01T07:32:38;-2.50;99.90
17252;DHT22;8742;51.716;8.790;2023-03-01T07:35:07;-2.50;99.90
17252;DHT22;8742;51.716;8.790;2023-03-01T07:37:34;-2.40;99.90
17252;DHT22;8742;51.716;8.790;2023-03-01T07:40:01;-2.30;99.90
17252;DHT22;8742;51.716;8.790;2023-03-01T07:42:27;-2.20;99.90
17252;DHT22;8742;51.716;8.790;2023-03-01T07:44:54;-2.10;99.90
17252;DHT22;8742;51.716;8.790;2023-03-01T07:47:21;-2.00;99.90
17252;DHT22;8742;51.716;8.790;2023-03-01T07:49:48;-1.90;99.90
17252;DHT22;8742;51.716;8.790;2023-03-01T07:52:16;-1.80;99.90
17252;DHT22;8742;51.716;8.790;2023-03-01T07:54:43;-1.70;99.90
17252;DHT22;8742;51.716;8.790;2023-03-01T07:57:10;-1.50;99.90
17252;DHT22;8742;51.716;8.790;2023-03-01T07:59:37;-1.40;99.90
17252;DHT22;8742;51.716;8.790;2023-03-01T08:02:04;-1.30;99.90
17252;DHT22;8742;51.716;8.790;2023-03-01T08:04:31;-1.20;99.90
17252;DHT22;8742;51.716;8.790;2023-03-01T08:06:58;-1.10;99.90
17252;DHT22;8742;51.716;8.790;2023-03-01T08:09:27;-1.00;99.90
17252;DHT22;8742;51.716;8.790;2023-03-01T08:11:53;-0.90;99.90
17252;DHT22;8742;51.716;8.790;2023-03-01T08:14:20;-0.80;99.90
17252;DHT22;8742;51.716;8.790;2023-03-01T08:16:51;-0.60;99.90
17252;DHT22;8742;51.716;8.790;2023-03-01T08:19:19;-0.40;99.90
17252;DHT22;8742;51.716;8.790;2023-03-01T08:21:46;-0.30;99.90
17252;DHT22;8742;51.716;8.790;2023-03-01T08:24:13;-0.20;99.90
17252;DHT22;8742;51.716;8.790;2023-03-01T08:26:41;0.00;99.90
17252;DHT22;8742;51.716;8.790;2023-03-01T08:29:08;0.20;99.90
17252;DHT22;8742;51.716;8.790;2023-03-01T08:31:36;0.30;99.90
17252;DHT22;8742;51.716;8.790;2023-03-01T08:34:06;0.50;99.90
17252;DHT22;8742;51.716;8.790;2023-03-01T08:36:36;0.60;99.90
17252;DHT22;8742;51.716;8.790;2023-03-01T08:39:14;0.80;99.90
17252;DHT22;8742;51.716;8.790;2023-03-01T08:41:43;1.10;99.90
17252;DHT22;8742;51.716;8.790;2023-03-01T08:44:20;1.50;99.90
17252;DHT22;8742;51.716;8.790;2023-03-01T08:46:47;2.40;99.90
17252;DHT22;8742;51.716;8.790;2023-03-01T08:49:17;3.60;99.90
17252;DHT22;8742;51.716;8.790;2023-03-01T08:51:44;4.70;99.90
17252;DHT22;8742;51.716;8.790;2023-03-01T08:54:21;5.60;99.90
17252;DHT22;8742;51.716;8.790;2023-03-01T08:59:38;7.30;99.90
17252;DHT22;8742;51.716;8.790;2023-03-01T09:02:08;7.90;99.90
17252;DHT22;8742;51.716;8.790;2023-03-01T09:04:36;8.30;99.90
17252;DHT22;8742;51.716;8.790;2023-03-01T09:07:03;8.70;99.90
17252;DHT22;8742;51.716;8.790;2023-03-01T09:09:30;8.90;99.90
17252;DHT22;8742;51.716;8.790;2023-03-01T09:11:58;9.10;99.90
17252;DHT22;8742;51.716;8.790;2023-03-01T09:14:25;9.40;99.90
17252;DHT22;8742;51.716;8.790;2023-03-01T09:16:52;9.70;99.90
17252;DHT22;8742;51.716;8.790;2023-03-01T09:19:19;10.00;99.90
17252;DHT22;8742;51.716;8.790;2023-03-01T09:21:45;10.30;98.90
17252;DHT22;8742;51.716;8.790;2023-03-01T09:24:18;10.50;98.40
17252;DHT22;8742;51.716;8.790;2023-03-01T09:26:45;10.70;97.20
17252;DHT22;8742;51.716;8.790;2023-03-01T09:29:14;10.90;95.20
17252;DHT22;8742;51.716;8.790;2023-03-01T09:31:41;11.00;95.00
17252;DHT22;8742;51.716;8.790;2023-03-01T09:34:09;11.00;96.90
17252;DHT22;8742;51.716;8.790;2023-03-01T09:36:36;11.10;96.20
17252;DHT22;8742;51.716;8.790;2023-03-01T09:39:03;11.30;96.30
17252;DHT22;8742;51.716;8.790;2023-03-01T09:41:50;11.50;96.40
17252;DHT22;8742;51.716;8.790;2023-03-01T09:44:29;11.80;96.00
17252;DHT22;8742;51.716;8.790;2023-03-01T09:46:58;11.80;93.40
17252;DHT22;8742;51.716;8.790;2023-03-01T09:49:27;11.90;93.90
17252;DHT22;8742;51.716;8.790;2023-03-01T09:51:58;12.20;90.10
17252;DHT22;8742;51.716;8.790;2023-03-01T09:54:26;12.10;91.30
17252;DHT22;8742;51.716;8.790;2023-03-01T09:57:04;12.00;89.90
17252;DHT22;8742;51.716;8.790;2023-03-01T09:59:43;12.00;90.50
17252;DHT22;8742;51.716;8.790;2023-03-01T10:02:23;12.10;86.80
17252;DHT22;8742;51.716;8.790;2023-03-01T10:04:56;12.00;85.90
17252;DHT22;8742;51.716;8.790;2023-03-01T10:07:32;12.00;86.90
17252;DHT22;8742;51.716;8.790;2023-03-01T10:10:00;12.00;86.30
17252;DHT22;8742;51.716;8.790;2023-03-01T10:12:34;11.80;85.80
17252;DHT22;8742;51.716;8.790;2023-03-01T10:15:06;11.80;83.00
17252;DHT22;8742;51.716;8.790;2023-03-01T10:17:41;11.80;83.60
17252;DHT22;8742;51.716;8.790;2023-03-01T10:20:20;11.80;83.00
17252;DHT22;8742;51.716;8.790;2023-03-01T10:22:47;11.90;83.60
17252;DHT22;8742;51.716;8.790;2023-03-01T10:25:24;12.00;85.20
17252;DHT22;8742;51.716;8.790;2023-03-01T10:27:54;12.30;81.30
17252;DHT22;8742;51.716;8.790;2023-03-01T10:30:29;12.50;81.40
17252;DHT22;8742;51.716;8.790;2023-03-01T10:32:57;12.60;80.50
17252;DHT22;8742;51.716;8.790;2023-03-01T10:35:27;12.70;77.10
17252;DHT22;8742;51.716;8.790;2023-03-01T10:37:58;12.70;78.50
17252;DHT22;8742;51.716;8.790;2023-03-01T10:40:28;12.80;80.40
17252;DHT22;8742;51.716;8.790;2023-03-01T10:42:58;13.10;84.10
17252;DHT22;8742;51.716;8.790;2023-03-01T10:45:34;13.10;82.60
17252;DHT22;8742;51.716;8.790;2023-03-01T10:48:09;13.20;82.40
17252;DHT22;8742;51.716;8.790;2023-03-01T10:50:38;13.50;82.70
17252;DHT22;8742;51.716;8.790;2023-03-01T10:53:23;13.60;86.40
17252;DHT22;8742;51.716;8.790;2023-03-01T10:56:03;13.90;83.50
17252;DHT22;8742;51.716;8.790;2023-03-01T10:58:31;14.20;77.90
17252;DHT22;8742;51.716;8.790;2023-03-01T11:01:05;14.30;78.10
17252;DHT22;8742;51.716;8.790;2023-03-01T11:03:33;14.40;77.80
17252;DHT22;8742;51.716;8.790;2023-03-01T11:06:12;14.70;79.80
17252;DHT22;8742;51.716;8.790;2023-03-01T11:08:47;14.90;78.80
17252;DHT22;8742;51.716;8.790;2023-03-01T11:11:25;15.10;85.00
17252;DHT22;8742;51.716;8.790;2023-03-01T11:13:58;15.50;84.30
17252;DHT22;8742;51.716;8.790;2023-03-01T11:16:30;16.00;75.50
17252;DHT22;8742;51.716;8.790;2023-03-01T11:19:00;16.10;75.40
17252;DHT22;8742;51.716;8.790;2023-03-01T11:21:29;16.10;77.50
17252;DHT22;8742;51.716;8.790;2023-03-01T11:23:59;16.20;79.30
17252;DHT22;8742;51.716;8.790;2023-03-01T11:26:27;16.30;83.50
17252;DHT22;8742;51.716;8.790;2023-03-01T11:28:56;16.50;73.40
17252;DHT22;8742;51.716;8.790;2023-03-01T11:31:25;16.60;82.50
17252;DHT22;8742;51.716;8.790;2023-03-01T11:33:58;16.80;77.30
17252;DHT22;8742;51.716;8.790;2023-03-01T11:36:31;17.00;76.00
17252;DHT22;8742;51.716;8.790;2023-03-01T11:39:05;17.20;79.30
17252;DHT22;8742;51.716;8.790;2023-03-01T11:41:39;16.90;81.10
17252;DHT22;8742;51.716;8.790;2023-03-01T11:44:17;16.70;81.50
17252;DHT22;8742;51.716;8.790;2023-03-01T11:53:02;17.10;76.10
17252;DHT22;8742;51.716;8.790;2023-03-01T11:55:58;17.40;81.30
17252;DHT22;8742;51.716;8.790;2023-03-01T11:58:45;17.40;76.00
17252;DHT22;8742;51.716;8.790;2023-03-01T12:01:30;17.20;79.90
17252;DHT22;8742;51.716;8.790;2023-03-01T12:04:22;17.40;79.70
17252;DHT22;8742;51.716;8.790;2023-03-01T12:06:59;17.20;78.00
17252;DHT22;8742;51.716;8.790;2023-03-01T12:09:59;17.20;77.20
17252;DHT22;8742;51.716;8.790;2023-03-01T12:12:32;17.10;76.40
17252;DHT22;8742;51.716;8.790;2023-03-01T12:18:41;16.60;77.70
17252;DHT22;8742;51.716;8.790;2023-03-01T12:21:21;16.80;69.60
17252;DHT22;8742;51.716;8.790;2023-03-01T12:26:59;16.70;72.70
17252;DHT22;8742;51.716;8.790;2023-03-01T12:29:34;16.50;72.70
17252;DHT22;8742;51.716;8.790;2023-03-01T12:32:17;16.50;71.30
17252;DHT22;8742;51.716;8.790;2023-03-01T12:35:13;16.70;72.90
17252;DHT22;8742;51.716;8.790;2023-03-01T12:37:56;16.80;75.80
17252;DHT22;8742;51.716;8.790;2023-03-01T12:40:49;17.00;67.80
17252;DHT22;8742;51.716;8.790;2023-03-01T12:43:28;16.80;73.80
17252;DHT22;8742;51.716;8.790;2023-03-01T12:46:10;16.80;71.40
17252;DHT22;8742;51.716;8.790;2023-03-01T12:48:46;16.80;67.50
17252;DHT22;8742;51.716;8.790;2023-03-01T12:51:17;16.50;69.40
17252;DHT22;8742;51.716;8.790;2023-03-01T12:53:48;16.60;70.10
17252;DHT22;8742;51.716;8.790;2023-03-01T12:56:19;16.80;69.90
17252;DHT22;8742;51.716;8.790;2023-03-01T12:58:57;16.90;68.00
17252;DHT22;8742;51.716;8.790;2023-03-01T13:01:35;16.80;67.30
17252;DHT22;8742;51.716;8.790;2023-03-01T13:04:29;16.70;68.10
17252;DHT22;8742;51.716;8.790;2023-03-01T13:07:15;16.80;70.90
17252;DHT22;8742;51.716;8.790;2023-03-01T13:09:49;17.10;70.60
17252;DHT22;8742;51.716;8.790;2023-03-01T13:12:50;17.30;67.50
17252;DHT22;8742;51.716;8.790;2023-03-01T13:15:32;17.60;68.90
17252;DHT22;8742;51.716;8.790;2023-03-01T13:18:00;17.50;64.40
17252;DHT22;8742;51.716;8.790;2023-03-01T13:20:32;17.50;67.80
17252;DHT22;8742;51.716;8.790;2023-03-01T13:23:06;16.90;62.60
17252;DHT22;8742;51.716;8.790;2023-03-01T13:25:33;15.50;62.10
17252;DHT22;8742;51.716;8.790;2023-03-01T13:28:37;14.20;68.40
17252;DHT22;8742;51.716;8.790;2023-03-01T13:31:07;13.30;71.60
17252;DHT22;8742;51.716;8.790;2023-03-01T13:33:40;13.20;72.90
17252;DHT22;8742;51.716;8.790;2023-03-01T13:36:09;13.60;71.30
17252;DHT22;8742;51.716;8.790;2023-03-01T13:38:45;14.10;71.40
17252;DHT22;8742;51.716;8.790;2023-03-01T13:41:12;14.60;70.00
17252;DHT22;8742;51.716;8.790;2023-03-01T13:43:41;15.20;69.80
17252;DHT22;8742;51.716;8.790;2023-03-01T13:46:12;15.70;71.20
17252;DHT22;8742;51.716;8.790;2023-03-01T13:48:44;16.00;68.60
17252;DHT22;8742;51.716;8.790;2023-03-01T13:51:12;16.00;66.10
17252;DHT22;8742;51.716;8.790;2023-03-01T13:53:42;16.20;67.80
17252;DHT22;8742;51.716;8.790;2023-03-01T13:56:12;16.30;67.90
17252;DHT22;8742;51.716;8.790;2023-03-01T13:58:49;16.60;67.40
17252;DHT22;8742;51.716;8.790;2023-03-01T14:01:28;17.00;63.80
17252;DHT22;8742;51.716;8.790;2023-03-01T14:03:55;17.10;66.20
17252;DHT22;8742;51.716;8.790;2023-03-01T14:06:24;17.10;64.70
17252;DHT22;8742;51.716;8.790;2023-03-01T14:09:03;17.00;66.20
17252;DHT22;8742;51.716;8.790;2023-03-01T14:11:52;16.90;64.20
17252;DHT22;8742;51.716;8.790;2023-03-01T14:14:39;16.70;64.50
17252;DHT22;8742;51.716;8.790;2023-03-01T14:17:22;16.60;66.30
17252;DHT22;8742;51.716;8.790;2023-03-01T14:19:56;16.70;65.30
17252;DHT22;8742;51.716;8.790;2023-03-01T14:22:25;16.60;64.80
17252;DHT22;8742;51.716;8.790;2023-03-01T14:24:56;16.60;66.10
17252;DHT22;8742;51.716;8.790;2023-03-01T14:27:25;16.60;66.70
17252;DHT22;8742;51.716;8.790;2023-03-01T14:29:59;16.70;65.30
17252;DHT22;8742;51.716;8.790;2023-03-01T14:32:27;16.70;65.00
17252;DHT22;8742;51.716;8.790;2023-03-01T14:34:55;16.80;64.90
17252;DHT22;8742;51.716;8.790;2023-03-01T14:37:26;16.80;66.40
17252;DHT22;8742;51.716;8.790;2023-03-01T14:39:53;16.80;67.20
17252;DHT22;8742;51.716;8.790;2023-03-01T14:42:21;16.90;66.30
17252;DHT22;8742;51.716;8.790;2023-03-01T14:44:51;17.00;65.10
17252;DHT22;8742;51.716;8.790;2023-03-01T14:47:27;17.00;66.70
17252;DHT22;8742;51.716;8.790;2023-03-01T14:49:58;16.90;63.80
17252;DHT22;8742;51.716;8.790;2023-03-01T14:52:31;16.70;64.90
17252;DHT22;8742;51.716;8.790;2023-03-01T14:55:01;16.40;66.00
17252;DHT22;8742;51.716;8.790;2023-03-01T14:57:28;16.30;65.70
17252;DHT22;8742;51.716;8.790;2023-03-01T14:59:59;16.40;69.60
17252;DHT22;8742;51.716;8.790;2023-03-01T15:02:31;16.50;67.60
17252;DHT22;8742;51.716;8.790;2023-03-01T15:05:01;16.50;69.30
17252;DHT22;8742;51.716;8.790;2023-03-01T15:07:31;16.60;65.10
17252;DHT22;8742;51.716;8.790;2023-03-01T15:09:59;16.70;65.70
17252;DHT22;8742;51.716;8.790;2023-03-01T15:12:35;16.70;67.20
17252;DHT22;8742;51.716;8.790;2023-03-01T15:15:20;16.60;64.70
17252;DHT22;8742;51.716;8.790;2023-03-01T15:17:53;16.40;66.10
17252;DHT22;8742;51.716;8.790;2023-03-01T15:20:24;16.20;67.10
17252;DHT22;8742;51.716;8.790;2023-03-01T15:22:53;16.20;67.00
17252;DHT22;8742;51.716;8.790;2023-03-01T15:25:22;16.00;67.10
17252;DHT22;8742;51.716;8.790;2023-03-01T15:27:51;15.90;65.70
17252;DHT22;8742;51.716;8.790;2023-03-01T15:30:21;15.80;67.30
17252;DHT22;8742;51.716;8.790;2023-03-01T15:33:17;15.80;67.80
17252;DHT22;8742;51.716;8.790;2023-03-01T15:35:47;15.70;67.10
17252;DHT22;8742;51.716;8.790;2023-03-01T15:38:30;15.60;67.40
17252;DHT22;8742;51.716;8.790;2023-03-01T15:40:59;15.40;66.50
17252;DHT22;8742;51.716;8.790;2023-03-01T15:43:43;15.40;69.50
17252;DHT22;8742;51.716;8.790;2023-03-01T15:46:32;15.40;67.90
17252;DHT22;8742;51.716;8.790;2023-03-01T15:49:02;15.30;68.60
17252;DHT22;8742;51.716;8.790;2023-03-01T15:51:32;15.10;69.40
17252;DHT22;8742;51.716;8.790;2023-03-01T15:54:04;15.00;65.90
17252;DHT22;8742;51.716;8.790;2023-03-01T15:56:31;14.90;67.80
17252;DHT22;8742;51.716;8.790;2023-03-01T15:59:00;14.80;68.60
17252;DHT22;8742;51.716;8.790;2023-03-01T16:01:27;14.70;69.20
17252;DHT22;8742;51.716;8.790;2023-03-01T16:03:54;14.60;69.60
17252;DHT22;8742;51.716;8.790;2023-03-01T16:06:25;14.50;69.90
17252;DHT22;8742;51.716;8.790;2023-03-01T16:08:52;14.20;68.80
17252;DHT22;8742;51.716;8.790;2023-03-01T16:11:19;13.90;68.70
17252;DHT22;8742;51.716;8.790;2023-03-01T16:13:46;13.30;70.20
17252;DHT22;8742;51.716;8.790;2023-03-01T16:16:14;12.90;69.40
17252;DHT22;8742;51.716;8.790;2023-03-01T16:18:42;12.40;71.10
17252;DHT22;8742;51.716;8.790;2023-03-01T16:21:19;11.90;70.40
17252;DHT22;8742;51.716;8.790;2023-03-01T16:23:48;11.10;70.60
17252;DHT22;8742;51.716;8.790;2023-03-01T16:26:15;10.40;72.10